sensor_id;sensor_type;location;lat;lon;timestamp;pressure;altitude;pressure_sealevel;temperature;humidity
69911;BME280;63555;49.920;17.868;2024-01-27T00:00:29;99321.38;;;2.22;100.00
69911;BME280;63555;49.920;17.868;2024-01-27T00:05:29;99328.63;;;2.12;100.00
69911;BME280;63555;49.920;17.868;2024-01-27T00:10:30;99340.09;;;2.07;100.00
69911;BME280;63555;49.920;17.868;2024-01-27T00:15:30;99343.88;;;1.97;100.00
69911;BME280;63555;49.920;17.868;2024-01-27T00:20:31;99349.47;;;1.84;100.00
69911;BME280;63555;49.920;17.868;2024-01-27T00:25:31;99355.81;;;1.76;100.00
69911;BME280;63555;49.920;17.868;2024-01-27T00:30:31;99358.56;;;1.70;100.00
69911;BME280;63555;49.920;17.868;2024-01-27T00:35:32;99368.06;;;1.71;100.00
69911;BME280;63555;49.920;17.868;2024-01-27T00:40:32;99368.91;;;1.71;100.00
69911;BME280;63555;49.920;17.868;2024-01-27T00:45:33;99386.16;;;1.75;100.00
69911;BME280;63555;49.920;17.868;2024-01-27T00:50:33;99396.41;;;1.80;100.00
69911;BME280;63555;49.920;17.868;2024-01-27T00:55:33;99407.56;;;1.83;100.00
69911;BME280;63555;49.920;17.868;2024-01-27T01:00:34;99395.41;;;1.84;100.00
69911;BME280;63555;49.920;17.868;2024-01-27T01:05:34;99399.97;;;1.77;100.00
69911;BME280;63555;49.920;17.868;2024-01-27T01:10:35;99400.25;;;1.67;100.00
69911;BME280;63555;49.920;17.868;2024-01-27T01:15:35;99419.16;;;1.72;100.00
69911;BME280;63555;49.920;17.868;2024-01-27T01:20:35;99415.38;;;1.83;100.00
69911;BME280;63555;49.920;17.868;2024-01-27T01:25:36;99423.59;;;1.98;100.00
69911;BME280;63555;49.920;17.868;2024-01-27T01:30:36;99432.22;;;2.00;100.00
69911;BME280;63555;49.920;17.868;2024-01-27T01:35:36;99457.91;;;2.10;100.00
69911;BME280;63555;49.920;17.868;2024-01-27T01:40:38;99467.09;;;2.22;100.00
69911;BME280;63555;49.920;17.868;2024-01-27T01:45:38;99461.78;;;2.25;100.00
69911;BME280;63555;49.920;17.868;2024-01-27T01:50:38;99444.13;;;2.07;100.00
69911;BME280;63555;49.920;17.868;2024-01-27T01:55:39;99459.53;;;1.85;100.00
69911;BME280;63555;49.920;17.868;2024-01-27T02:00:40;99451.09;;;1.77;100.00
69911;BME280;63555;49.920;17.868;2024-01-27T02:05:40;99448.69;;;1.69;100.00
69911;BME280;63555;49.920;17.868;2024-01-27T02:10:41;99451.28;;;1.69;100.00
69911;BME280;63555;49.920;17.868;2024-01-27T02:15:41;99447.72;;;1.73;100.00
69911;BME280;63555;49.920;17.868;2024-01-27T02:20:42;99448.28;;;1.84;100.00
69911;BME280;63555;49.920;17.868;2024-01-27T02:25:43;99459.34;;;1.91;100.00
69911;BME280;63555;49.920;17.868;2024-01-27T02:30:43;99451.41;;;1.96;100.00
69911;BME280;63555;49.920;17.868;2024-01-27T02:35:44;99441.59;;;2.05;100.00
69911;BME280;63555;49.920;17.868;2024-01-27T02:40:44;99435.34;;;2.11;100.00
69911;BME280;63555;49.920;17.868;2024-01-27T02:45:44;99431.13;;;2.07;100.00
69911;BME280;63555;49.920;17.868;2024-01-27T02:50:45;99437.34;;;2.03;100.00
69911;BME280;63555;49.920;17.868;2024-01-27T02:55:45;99439.75;;;2.09;100.00
69911;BME280;63555;49.920;17.868;2024-01-27T03:00:46;99441.41;;;2.11;100.00
69911;BME280;63555;49.920;17.868;2024-01-27T03:05:46;99444.84;;;2.12;100.00
69911;BME280;63555;49.920;17.868;2024-01-27T03:10:46;99439.69;;;2.10;100.00
69911;BME280;63555;49.920;17.868;2024-01-27T03:15:47;99461.25;;;2.14;100.00
69911;BME280;63555;49.920;17.868;2024-01-27T03:20:47;99464.66;;;2.16;100.00
69911;BME280;63555;49.920;17.868;2024-01-27T03:25:48;99472.72;;;2.08;100.00
69911;BME280;63555;49.920;17.868;2024-01-27T03:30:48;99474.97;;;1.91;100.00
69911;BME280;63555;49.920;17.868;2024-01-27T03:35:48;99471.19;;;1.70;100.00
69911;BME280;63555;49.920;17.868;2024-01-27T03:40:49;99472.56;;;1.52;100.00
69911;BME280;63555;49.920;17.868;2024-01-27T03:45:49;99487.56;;;1.43;100.00
69911;BME280;63555;49.920;17.868;2024-01-27T03:50:50;99491.00;;;1.43;100.00
69911;BME280;63555;49.920;17.868;2024-01-27T03:55:50;99498.81;;;1.43;100.00
69911;BME280;63555;49.920;17.868;2024-01-27T04:00:51;99506.59;;;1.43;100.00
69911;BME280;63555;49.920;17.868;2024-01-27T04:05:51;99510.97;;;1.41;100.00
69911;BME280;63555;49.920;17.868;2024-01-27T04:10:52;99510.16;;;1.39;100.00
69911;BME280;63555;49.920;17.868;2024-01-27T04:15:52;99511.06;;;1.38;100.00
69911;BME280;63555;49.920;17.868;2024-01-27T04:20:54;99513.66;;;1.38;100.00
69911;BME280;63555;49.920;17.868;2024-01-27T04:25:54;99510.88;;;1.46;100.00
69911;BME280;63555;49.920;17.868;2024-01-27T04:30:54;99528.13;;;1.48;99.81
69911;BME280;63555;49.920;17.868;2024-01-27T04:35:55;99517.81;;;1.45;99.48
69911;BME280;63555;49.920;17.868;2024-01-27T04:40:55;99537.94;;;1.37;99.71
69911;BME280;63555;49.920;17.868;2024-01-27T04:45:56;99541.63;;;1.28;99.59
69911;BME280;63555;49.920;17.868;2024-01-27T04:50:56;99556.53;;;1.22;98.57
69911;BME280;63555;49.920;17.868;2024-01-27T04:55:56;99567.00;;;1.19;98.63
69911;BME280;63555;49.920;17.868;2024-01-27T05:00:57;99574.06;;;1.12;98.22
69911;BME280;63555;49.920;17.868;2024-01-27T05:05:57;99573.34;;;1.07;97.63
69911;BME280;63555;49.920;17.868;2024-01-27T05:10:57;99570.03;;;1.01;97.98
69911;BME280;63555;49.920;17.868;2024-01-27T05:15:58;99570.25;;;0.91;97.16
69911;BME280;63555;49.920;17.868;2024-01-27T05:20:59;99576.41;;;0.87;97.42
69911;BME280;63555;49.920;17.868;2024-01-27T05:25:59;99577.31;;;0.85;97.47
69911;BME280;63555;49.920;17.868;2024-01-27T05:30:59;99597.06;;;0.92;97.71
69911;BME280;63555;49.920;17.868;2024-01-27T05:36:00;99599.28;;;1.09;98.61
69911;BME280;63555;49.920;17.868;2024-01-27T05:41:01;99600.41;;;1.33;99.65
69911;BME280;63555;49.920;17.868;2024-01-27T05:46:04;99605.06;;;1.54;100.00
69911;BME280;63555;49.920;17.868;2024-01-27T05:51:05;99595.13;;;1.70;100.00
69911;BME280;63555;49.920;17.868;2024-01-27T05:56:05;99603.53;;;1.81;100.00
69911;BME280;63555;49.920;17.868;2024-01-27T06:01:05;99601.56;;;1.89;100.00
69911;BME280;63555;49.920;17.868;2024-01-27T06:06:06;99612.88;;;1.88;100.00
69911;BME280;63555;49.920;17.868;2024-01-27T06:11:06;99611.38;;;1.79;100.00
69911;BME280;63555;49.920;17.868;2024-01-27T06:16:08;99625.38;;;1.74;100.00
69911;BME280;63555;49.920;17.868;2024-01-27T06:21:11;99637.78;;;1.63;100.00
69911;BME280;63555;49.920;17.868;2024-01-27T06:26:13;99642.34;;;1.53;99.16
69911;BME280;63555;49.920;17.868;2024-01-27T06:31:15;99649.53;;;1.43;99.38
69911;BME280;63555;49.920;17.868;2024-01-27T06:36:15;99652.31;;;1.36;98.55
69911;BME280;63555;49.920;17.868;2024-01-27T06:41:16;99654.16;;;1.31;97.76
69911;BME280;63555;49.920;17.868;2024-01-27T06:46:17;99648.22;;;1.25;97.58
69911;BME280;63555;49.920;17.868;2024-01-27T06:51:17;99648.44;;;1.16;96.90
69911;BME280;63555;49.920;17.868;2024-01-27T06:56:17;99643.53;;;1.04;96.60
69911;BME280;63555;49.920;17.868;2024-01-27T07:01:18;99643.66;;;0.98;96.23
69911;BME280;63555;49.920;17.868;2024-01-27T07:06:18;99651.59;;;0.92;95.99
69911;BME280;63555;49.920;17.868;2024-01-27T07:11:18;99649.97;;;0.88;95.49
69911;BME280;63555;49.920;17.868;2024-01-27T07:16:19;99651.63;;;0.90;95.72
69911;BME280;63555;49.920;17.868;2024-01-27T07:21:20;99661.97;;;0.92;96.35
69911;BME280;63555;49.920;17.868;2024-01-27T07:26:20;99656.72;;;0.95;95.83
69911;BME280;63555;49.920;17.868;2024-01-27T07:31:21;99664.50;;;0.95;96.12
69911;BME280;63555;49.920;17.868;2024-01-27T07:36:22;99672.34;;;0.93;96.26
69911;BME280;63555;49.920;17.868;2024-01-27T07:41:22;99673.19;;;0.94;96.02
69911;BME280;63555;49.920;17.868;2024-01-27T07:46:22;99673.09;;;0.99;96.15
69911;BME280;63555;49.920;17.868;2024-01-27T07:51:23;99674.75;;;1.01;96.36
69911;BME280;63555;49.920;17.868;2024-01-27T07:56:23;99677.25;;;1.06;97.10
69911;BME280;63555;49.920;17.868;2024-01-27T08:01:23;99674.59;;;1.09;97.07
69911;BME280;63555;49.920;17.868;2024-01-27T08:06:28;99675.31;;;1.15;97.65
69911;BME280;63555;49.920;17.868;2024-01-27T08:11:31;99678.41;;;1.31;98.73
69911;BME280;63555;49.920;17.868;2024-01-27T08:16:32;99680.66;;;1.45;98.68
69911;BME280;63555;49.920;17.868;2024-01-27T08:21:32;99687.16;;;1.63;99.24
69911;BME280;63555;49.920;17.868;2024-01-27T08:26:33;99668.25;;;1.91;99.96
69911;BME280;63555;49.920;17.868;2024-01-27T08:31:33;99687.31;;;2.24;100.00
69911;BME280;63555;49.920;17.868;2024-01-27T08:36:34;99684.63;;;2.59;100.00
69911;BME280;63555;49.920;17.868;2024-01-27T08:41:35;99687.00;;;2.97;100.00
69911;BME280;63555;49.920;17.868;2024-01-27T08:46:35;99671.94;;;3.35;100.00
69911;BME280;63555;49.920;17.868;2024-01-27T08:51:35;99676.25;;;3.64;100.00
69911;BME280;63555;49.920;17.868;2024-01-27T08:56:39;99674.28;;;3.70;100.00
69911;BME280;63555;49.920;17.868;2024-01-27T09:01:41;99686.00;;;3.83;98.77
69911;BME280;63555;49.920;17.868;2024-01-27T09:06:42;99693.28;;;4.25;99.87
69911;BME280;63555;49.920;17.868;2024-01-27T09:11:42;99692.81;;;5.32;100.00
69911;BME280;63555;49.920;17.868;2024-01-27T09:16:43;99695.50;;;5.95;99.04
69911;BME280;63555;49.920;17.868;2024-01-27T09:21:43;99705.09;;;6.96;99.78
69911;BME280;63555;49.920;17.868;2024-01-27T09:26:44;99702.38;;;7.35;93.57
69911;BME280;63555;49.920;17.868;2024-01-27T09:31:44;99704.59;;;8.15;92.39
69911;BME280;63555;49.920;17.868;2024-01-27T09:36:44;99725.47;;;8.18;86.06
69911;BME280;63555;49.920;17.868;2024-01-27T09:41:45;99731.81;;;7.42;85.73
69911;BME280;63555;49.920;17.868;2024-01-27T09:46:46;99727.06;;;6.73;86.27
69911;BME280;63555;49.920;17.868;2024-01-27T09:51:49;99736.94;;;6.27;86.76
69911;BME280;63555;49.920;17.868;2024-01-27T09:56:50;99740.81;;;5.97;85.07
69911;BME280;63555;49.920;17.868;2024-01-27T10:01:52;99747.94;;;5.93;84.55
69911;BME280;63555;49.920;17.868;2024-01-27T10:06:53;99740.41;;;5.84;81.19
69911;BME280;63555;49.920;17.868;2024-01-27T10:11:53;99746.69;;;5.80;78.30
69911;BME280;63555;49.920;17.868;2024-01-27T10:16:55;99739.28;;;5.69;76.05
69911;BME280;63555;49.920;17.868;2024-01-27T10:22:01;99756.50;;;5.53;73.95
69911;BME280;63555;49.920;17.868;2024-01-27T10:27:03;99760.91;;;5.29;73.34
69911;BME280;63555;49.920;17.868;2024-01-27T10:32:09;99749.97;;;5.18;72.87
69911;BME280;63555;49.920;17.868;2024-01-27T10:37:13;99748.88;;;5.25;72.00
69911;BME280;63555;49.920;17.868;2024-01-27T10:42:14;99752.34;;;5.26;70.34
69911;BME280;63555;49.920;17.868;2024-01-27T10:47:18;99733.25;;;5.24;69.96
69911;BME280;63555;49.920;17.868;2024-01-27T10:52:21;99731.59;;;5.21;69.97
69911;BME280;63555;49.920;17.868;2024-01-27T10:57:24;99739.59;;;5.17;69.42
69911;BME280;63555;49.920;17.868;2024-01-27T11:02:28;99708.06;;;5.21;69.95
69911;BME280;63555;49.920;17.868;2024-01-27T11:07:33;99690.19;;;5.32;70.55
69911;BME280;63555;49.920;17.868;2024-01-27T11:12:34;99672.31;;;5.43;70.00
69911;BME280;63555;49.920;17.868;2024-01-27T11:17:41;99706.72;;;5.55;68.80
69911;BME280;63555;49.920;17.868;2024-01-27T11:22:41;99720.22;;;5.66;67.43
69911;BME280;63555;49.920;17.868;2024-01-27T11:27:45;99729.28;;;5.79;67.50
69911;BME280;63555;49.920;17.868;2024-01-27T11:32:48;99742.09;;;5.65;66.45
69911;BME280;63555;49.920;17.868;2024-01-27T11:37:49;99744.28;;;5.54;67.93
69911;BME280;63555;49.920;17.868;2024-01-27T11:48:56;99742.88;;;5.45;66.22
69911;BME280;63555;49.920;17.868;2024-01-27T11:53:57;99742.50;;;5.32;67.37
69911;BME280;63555;49.920;17.868;2024-01-27T11:58:57;99750.03;;;5.17;66.63
69911;BME280;63555;49.920;17.868;2024-01-27T12:03:58;99742.47;;;5.09;67.72
69911;BME280;63555;49.920;17.868;2024-01-27T12:09:00;99738.22;;;5.06;67.56
69911;BME280;63555;49.920;17.868;2024-01-27T12:14:01;99719.38;;;4.98;66.96
69911;BME280;63555;49.920;17.868;2024-01-27T12:49:04;99728.66;;;4.59;67.82
69911;BME280;63555;49.920;17.868;2024-01-27T13:47:43;99814.59;;;4.41;67.88
69911;BME280;63555;49.920;17.868;2024-01-27T13:52:44;99805.00;;;4.42;68.27
69911;BME280;63555;49.920;17.868;2024-01-27T13:57:46;99816.28;;;4.42;67.71
69911;BME280;63555;49.920;17.868;2024-01-27T14:02:46;99806.69;;;4.43;67.71
69911;BME280;63555;49.920;17.868;2024-01-27T14:07:46;99818.09;;;4.40;67.59
69911;BME280;63555;49.920;17.868;2024-01-27T14:12:47;99823.38;;;4.39;67.56
69911;BME280;63555;49.920;17.868;2024-01-27T14:17:48;99841.75;;;4.36;68.01
69911;BME280;63555;49.920;17.868;2024-01-27T14:22:48;99832.25;;;4.33;67.80
69911;BME280;63555;49.920;17.868;2024-01-27T14:27:49;99840.00;;;4.36;67.62
69911;BME280;63555;49.920;17.868;2024-01-27T14:32:50;99839.19;;;4.34;67.88
69911;BME280;63555;49.920;17.868;2024-01-27T14:37:52;99845.34;;;4.32;68.32
69911;BME280;63555;49.920;17.868;2024-01-27T14:42:52;99835.75;;;4.32;68.01
69911;BME280;63555;49.920;17.868;2024-01-27T14:47:53;99873.16;;;4.33;67.69
69911;BME280;63555;49.920;17.868;2024-01-27T14:52:54;99843.59;;;4.32;68.14
69911;BME280;63555;49.920;17.868;2024-01-27T14:57:54;99875.69;;;4.36;67.79
69911;BME280;63555;49.920;17.868;2024-01-27T15:02:55;99883.50;;;4.37;67.86
69911;BME280;63555;49.920;17.868;2024-01-27T15:07:55;99869.56;;;4.37;67.80
69911;BME280;63555;49.920;17.868;2024-01-27T15:12:56;99891.41;;;4.34;67.99
69911;BME280;63555;49.920;17.868;2024-01-27T15:17:58;99913.28;;;4.30;68.00
69911;BME280;63555;49.920;17.868;2024-01-27T15:23:00;99906.44;;;4.26;68.44
69911;BME280;63555;49.920;17.868;2024-01-27T15:28:01;99926.56;;;4.23;68.44
69911;BME280;63555;49.920;17.868;2024-01-27T15:33:01;99934.53;;;4.18;68.99
69911;BME280;63555;49.920;17.868;2024-01-27T15:38:02;99939.09;;;4.11;68.40
69911;BME280;63555;49.920;17.868;2024-01-27T15:43:03;99948.88;;;4.05;69.12
69911;BME280;63555;49.920;17.868;2024-01-27T15:48:05;99958.66;;;3.98;69.10
69911;BME280;63555;49.920;17.868;2024-01-27T15:53:05;99968.41;;;3.92;69.29
69911;BME280;63555;49.920;17.868;2024-01-27T15:58:08;99980.72;;;3.87;69.72
69911;BME280;63555;49.920;17.868;2024-01-27T16:03:09;99985.13;;;3.84;69.64
69911;BME280;63555;49.920;17.868;2024-01-27T16:08:10;99986.03;;;3.83;69.72
69911;BME280;63555;49.920;17.868;2024-01-27T16:13:11;100000.03;;;3.81;69.76
69911;BME280;63555;49.920;17.868;2024-01-27T16:18:13;100011.41;;;3.78;69.87
69911;BME280;63555;49.920;17.868;2024-01-27T16:23:13;100023.59;;;3.78;70.35
69911;BME280;63555;49.920;17.868;2024-01-27T16:28:14;100035.88;;;3.74;70.29
69911;BME280;63555;49.920;17.868;2024-01-27T16:33:14;100044.66;;;3.70;70.58
69911;BME280;63555;49.920;17.868;2024-01-27T16:38:14;100056.94;;;3.67;70.96
69911;BME280;63555;49.920;17.868;2024-01-27T16:43:15;100068.34;;;3.63;70.96
69911;BME280;63555;49.920;17.868;2024-01-27T16:48:16;100076.34;;;3.57;70.74
69911;BME280;63555;49.920;17.868;2024-01-27T16:53:16;100084.31;;;3.50;71.15
69911;BME280;63555;49.920;17.868;2024-01-27T16:58:17;100097.59;;;3.40;71.63
69911;BME280;63555;49.920;17.868;2024-01-27T17:03:17;100105.66;;;3.31;72.13
69911;BME280;63555;49.920;17.868;2024-01-27T17:08:18;100113.63;;;3.25;71.86
69911;BME280;63555;49.920;17.868;2024-01-27T17:13:18;100119.16;;;3.11;72.30
69911;BME280;63555;49.920;17.868;2024-01-27T17:18:19;100119.41;;;3.00;72.63
69911;BME280;63555;49.920;17.868;2024-01-27T17:23:20;100132.66;;;2.91;73.50
69911;BME280;63555;49.920;17.868;2024-01-27T17:28:20;100147.66;;;2.80;73.69
69911;BME280;63555;49.920;17.868;2024-01-27T17:33:21;100150.47;;;2.71;74.27
69911;BME280;63555;49.920;17.868;2024-01-27T17:38:21;100156.63;;;2.67;75.02
69911;BME280;63555;49.920;17.868;2024-01-27T17:43:22;100162.81;;;2.61;74.29
69911;BME280;63555;49.920;17.868;2024-01-27T17:48:22;100169.81;;;2.58;75.30
69911;BME280;63555;49.920;17.868;2024-01-27T17:53:22;100169.00;;;2.55;75.03
69911;BME280;63555;49.920;17.868;2024-01-27T17:58:23;100183.69;;;2.58;75.74
69911;BME280;63555;49.920;17.868;2024-01-27T18:03:23;100182.91;;;2.54;75.56
69911;BME280;63555;49.920;17.868;2024-01-27T18:08:24;100189.00;;;2.53;76.06
69911;BME280;63555;49.920;17.868;2024-01-27T18:13:24;100202.09;;;2.49;75.69
69911;BME280;63555;49.920;17.868;2024-01-27T18:18:25;100203.13;;;2.40;76.48
69911;BME280;63555;49.920;17.868;2024-01-27T18:23:26;100212.88;;;2.31;76.41
69911;BME280;63555;49.920;17.868;2024-01-27T18:28:26;100218.19;;;2.24;77.09
69911;BME280;63555;49.920;17.868;2024-01-27T18:33:27;100227.84;;;2.18;76.77
69911;BME280;63555;49.920;17.868;2024-01-27T18:38:28;100234.88;;;2.13;77.59
69911;BME280;63555;49.920;17.868;2024-01-27T18:43:28;100238.25;;;2.18;77.98
69911;BME280;63555;49.920;17.868;2024-01-27T18:48:29;100258.16;;;2.20;77.63
69911;BME280;63555;49.920;17.868;2024-01-27T18:53:29;100254.75;;;2.18;78.45
69911;BME280;63555;49.920;17.868;2024-01-27T18:58:33;100269.50;;;2.18;77.96
69911;BME280;63555;49.920;17.868;2024-01-27T19:03:34;100271.34;;;2.11;78.68
69911;BME280;63555;49.920;17.868;2024-01-27T19:08:34;100270.56;;;2.06;78.47
69911;BME280;63555;49.920;17.868;2024-01-27T19:13:35;100273.94;;;2.11;79.12
69911;BME280;63555;49.920;17.868;2024-01-27T19:18:35;100283.53;;;2.09;79.00
69911;BME280;63555;49.920;17.868;2024-01-27T19:23:36;100284.44;;;2.05;79.29
69911;BME280;63555;49.920;17.868;2024-01-27T19:28:36;100292.28;;;2.04;79.95
69911;BME280;63555;49.920;17.868;2024-01-27T19:33:37;100288.84;;;2.02;79.38
69911;BME280;63555;49.920;17.868;2024-01-27T19:38:37;100306.22;;;2.00;79.60
69911;BME280;63555;49.920;17.868;2024-01-27T19:43:38;100314.81;;;2.05;80.36
69911;BME280;63555;49.920;17.868;2024-01-27T19:48:41;100310.41;;;2.08;79.88
69911;BME280;63555;49.920;17.868;2024-01-27T19:53:41;100307.75;;;2.13;80.12
69911;BME280;63555;49.920;17.868;2024-01-27T19:58:41;100321.47;;;2.21;79.79
69911;BME280;63555;49.920;17.868;2024-01-27T20:03:42;100321.47;;;2.21;80.43
69911;BME280;63555;49.920;17.868;2024-01-27T20:08:42;100331.91;;;2.21;80.21
69911;BME280;63555;49.920;17.868;2024-01-27T20:13:43;100345.75;;;2.23;80.54
69911;BME280;63555;49.920;17.868;2024-01-27T20:18:44;100342.97;;;2.32;80.97
69911;BME280;63555;49.920;17.868;2024-01-27T20:23:44;100351.50;;;2.42;80.34
69911;BME280;63555;49.920;17.868;2024-01-27T20:28:44;100356.50;;;2.52;80.30
69911;BME280;63555;49.920;17.868;2024-01-27T20:33:45;100363.38;;;2.58;80.59
69911;BME280;63555;49.920;17.868;2024-01-27T20:38:45;100356.34;;;2.65;80.81
69911;BME280;63555;49.920;17.868;2024-01-27T20:43:46;100359.69;;;2.71;80.70
69911;BME280;63555;49.920;17.868;2024-01-27T20:48:46;100382.13;;;2.78;80.19
69911;BME280;63555;49.920;17.868;2024-01-27T20:53:47;100389.78;;;2.87;80.41
69911;BME280;63555;49.920;17.868;2024-01-27T20:58:47;100382.69;;;2.96;80.89
69911;BME280;63555;49.920;17.868;2024-01-27T21:03:48;100391.22;;;3.04;80.46
69911;BME280;63555;49.920;17.868;2024-01-27T21:08:48;100397.13;;;3.12;80.64
69911;BME280;63555;49.920;17.868;2024-01-27T21:13:49;100404.00;;;3.16;80.32
69911;BME280;63555;49.920;17.868;2024-01-27T21:18:49;100407.41;;;3.19;80.34
69911;BME280;63555;49.920;17.868;2024-01-27T21:23:50;100411.72;;;3.22;80.20
69911;BME280;63555;49.920;17.868;2024-01-27T21:28:51;100409.94;;;3.24;80.13
69911;BME280;63555;49.920;17.868;2024-01-27T21:33:51;100417.69;;;3.27;79.61
69911;BME280;63555;49.920;17.868;2024-01-27T21:38:53;100415.91;;;3.29;80.22
69911;BME280;63555;49.920;17.868;2024-01-27T21:43:53;100418.47;;;3.32;80.10
69911;BME280;63555;49.920;17.868;2024-01-27T21:48:57;100421.06;;;3.32;80.02
69911;BME280;63555;49.920;17.868;2024-01-27T21:53:57;100420.19;;;3.33;80.10
69911;BME280;63555;49.920;17.868;2024-01-27T21:58:58;100436.66;;;3.35;80.12
69911;BME280;63555;49.920;17.868;2024-01-27T22:04:00;100445.31;;;3.37;80.25
69911;BME280;63555;49.920;17.868;2024-01-27T22:09:01;100441.81;;;3.38;79.90
69911;BME280;63555;49.920;17.868;2024-01-27T22:14:01;100446.97;;;3.41;80.10
69911;BME280;63555;49.920;17.868;2024-01-27T22:19:02;100453.91;;;3.42;80.05
69911;BME280;63555;49.920;17.868;2024-01-27T22:24:02;100462.56;;;3.43;80.01
69911;BME280;63555;49.920;17.868;2024-01-27T22:29:03;100469.47;;;3.45;79.76
69911;BME280;63555;49.920;17.868;2024-01-27T22:34:03;100477.31;;;3.47;80.15
69911;BME280;63555;49.920;17.868;2024-01-27T22:39:04;100488.59;;;3.47;79.95
69911;BME280;63555;49.920;17.868;2024-01-27T22:44:04;100483.34;;;3.49;79.74
69911;BME280;63555;49.920;17.868;2024-01-27T22:49:04;100481.59;;;3.49;79.84
69911;BME280;63555;49.920;17.868;2024-01-27T22:54:06;100481.56;;;3.51;79.81
69911;BME280;63555;49.920;17.868;2024-01-27T22:59:06;100482.47;;;3.50;79.90
69911;BME280;63555;49.920;17.868;2024-01-27T23:04:06;100482.47;;;3.50;79.81
69911;BME280;63555;49.920;17.868;2024-01-27T23:09:08;100488.56;;;3.49;80.02
69911;BME280;63555;49.920;17.868;2024-01-27T23:14:08;100495.53;;;3.48;79.62
69911;BME280;63555;49.920;17.868;2024-01-27T23:19:09;100509.47;;;3.47;80.01
69911;BME280;63555;49.920;17.868;2024-01-27T23:24:12;100498.16;;;3.47;79.61
69911;BME280;63555;49.920;17.868;2024-01-27T23:29:13;100495.56;;;3.47;79.53
69911;BME280;63555;49.920;17.868;2024-01-27T23:34:13;100503.38;;;3.47;79.72
69911;BME280;63555;49.920;17.868;2024-01-27T23:39:15;100512.06;;;3.47;79.80
69911;BME280;63555;49.920;17.868;2024-01-27T23:44:16;100504.28;;;3.44;79.58
69911;BME280;63555;49.920;17.868;2024-01-27T23:49:16;100504.34;;;3.40;80.16
69911;BME280;63555;49.920;17.868;2024-01-27T23:54:17;100503.53;;;3.38;80.19
69911;BME280;63555;49.920;17.868;2024-01-27T23:59:17;100509.63;;;3.37;80.22
